FLL weather

Fort Lauderdale Hollywood International Airport
Fort Lauderdale, Florida, United States

Public forecast

Using degrees Fahrenheit for public forecast. Weather courtesy of forecast.io.

METAR (pilot weather report)

Retrieved 2017/05/25 00:43 UTC (15 minutes ago):

KFLL 250043Z 27017G24KT 6SM R10L/6000VP6000FT VCTS BR SCT016 BKN027 BKN037 OVC250 24/22 A2988 RMK AO2 PK WND 18029/0002 WSHFT 0004 LTG DSNT ALQDS RAB04E16 TSB06E41 PRESRR TS SW-W MOV NE P0017 T02390222

TAF (pilot weather forecast)

Forecast is more than 12 hours old.

Retrieved 2017/05/24 00:22 UTC (1 day ago):

TAF KFLL 242320Z 2500/2524 22015G25KT P6SM -SHRA VCTS SCT035CB BKN060 BKN090 TEMPO 2500/2502 VRB25G40KT 2SM TSRA SCT015 BKN030CB OVC040 FM250200 20010KT P6SM VCSH SCT040 BKN080 BKN100 FM251300 24015G25KT P6SM -SHRA VCTS SCT030CB BKN050 OVC080 FM252200 26012G20KT P6SM SCT030 SCT080 BKN250